createdAt,value
2022-11-04T00:00:59.219Z,89.82
2022-11-04T00:01:59.172Z,89.72
2022-11-04T00:02:59.098Z,89.31
2022-11-04T00:03:59.089Z,89.72
2022-11-04T00:04:59.122Z,90.23
2022-11-04T00:05:59.088Z,90.64
2022-11-04T00:06:59.047Z,91.05
2022-11-04T00:07:59.066Z,91.09
2022-11-04T00:08:59.021Z,91.29
2022-11-04T00:09:59.018Z,91.60
2022-11-04T00:10:58.997Z,91.91
2022-11-04T00:11:59.014Z,92.01
2022-11-04T00:12:58.984Z,92.32
2022-11-04T00:13:58.963Z,92.52
2022-11-04T00:14:58.967Z,92.62
2022-11-04T00:15:58.937Z,92.87
2022-11-04T00:16:58.928Z,92.97
2022-11-04T00:17:58.952Z,93.13
2022-11-04T00:18:58.898Z,93.07
2022-11-04T00:19:58.886Z,93.18
2022-11-04T00:20:58.911Z,92.97
2022-11-04T00:21:58.869Z,92.77
2022-11-04T00:22:58.849Z,92.97
2022-11-04T00:23:58.849Z,92.97
2022-11-04T00:24:58.868Z,93.28
2022-11-04T00:25:58.808Z,93.18
2022-11-04T00:26:58.796Z,93.18
2022-11-04T00:27:58.818Z,93.28
2022-11-04T00:28:58.778Z,93.48
2022-11-04T00:29:58.769Z,92.97
2022-11-04T00:30:58.767Z,92.56
2022-11-04T00:31:58.738Z,92.66
2022-11-04T00:32:58.722Z,92.77
2022-11-04T00:33:58.748Z,92.56
2022-11-04T00:34:58.697Z,92.77
2022-11-04T00:35:58.692Z,91.85
2022-11-04T00:36:58.693Z,91.64
2022-11-04T00:37:58.659Z,91.54
2022-11-04T00:38:58.644Z,91.85
2022-11-04T00:39:58.635Z,91.13
2022-11-04T00:40:58.669Z,91.33
2022-11-04T00:41:58.632Z,91.54
2022-11-04T00:42:58.595Z,91.64
2022-11-04T00:43:58.640Z,91.95
2022-11-04T00:44:58.575Z,91.85
2022-11-04T00:45:58.558Z,91.95
2022-11-04T00:46:58.551Z,91.74
2022-11-04T00:47:58.556Z,91.23
2022-11-04T00:48:58.523Z,91.44
2022-11-04T00:49:58.512Z,91.54
2022-11-04T00:50:58.519Z,91.54
2022-11-04T00:51:58.480Z,91.48
2022-11-04T00:52:58.468Z,91.58
2022-11-04T00:53:58.527Z,91.44
2022-11-04T00:54:58.491Z,91.69
2022-11-04T00:55:58.437Z,91.48
2022-11-04T00:56:58.421Z,91.58
2022-11-04T00:57:58.441Z,91.38
2022-11-04T00:58:58.402Z,91.48
2022-11-04T00:59:58.397Z,91.48
2022-11-04T01:00:58.400Z,91.69
2022-11-04T01:01:58.544Z,91.38
2022-11-04T01:02:58.360Z,91.48
2022-11-04T01:03:58.337Z,91.48
2022-11-04T01:04:58.331Z,91.58
2022-11-04T01:05:58.327Z,91.58
2022-11-04T01:06:58.299Z,91.48
2022-11-04T01:07:58.284Z,91.38
2022-11-04T01:08:58.303Z,91.07
2022-11-04T01:09:58.265Z,91.13
2022-11-04T01:10:58.237Z,91.13
2022-11-04T01:11:58.240Z,90.92
2022-11-04T01:12:58.220Z,90.72
2022-11-04T01:13:58.205Z,90.62
2022-11-04T01:14:58.196Z,90.41
2022-11-04T01:15:58.186Z,90.31
2022-11-04T01:16:58.166Z,90.21
2022-11-04T01:17:58.163Z,90.41
2022-11-04T01:18:58.174Z,90.52
2022-11-04T01:19:58.130Z,90.52
2022-11-04T01:20:58.117Z,90.72
2022-11-04T01:21:58.100Z,90.72
2022-11-04T01:22:58.098Z,90.82
2022-11-04T01:23:58.091Z,90.82
2022-11-04T01:24:58.080Z,90.82
2022-11-04T01:25:58.064Z,90.72
2022-11-04T01:26:58.040Z,90.31
2022-11-04T01:27:58.033Z,90.41
2022-11-04T01:28:58.027Z,90.72
2022-11-04T01:29:58.018Z,90.62
2022-11-04T01:30:57.986Z,90.62
2022-11-04T01:31:57.979Z,90.62
2022-11-04T01:32:57.992Z,90.72
2022-11-04T01:33:57.957Z,90.72
2022-11-04T01:34:57.959Z,90.92
2022-11-04T01:35:57.968Z,91.13
2022-11-04T01:36:57.925Z,91.13
2022-11-04T01:37:57.923Z,91.13
2022-11-04T01:38:57.887Z,91.54
2022-11-04T01:39:57.878Z,92.19
2022-11-04T01:40:57.861Z,92.50
2022-11-04T01:41:57.922Z,92.71
2022-11-04T01:42:57.840Z,93.01
2022-11-04T01:43:57.831Z,93.12
2022-11-04T01:44:57.818Z,93.32
2022-11-04T01:45:57.802Z,93.63
2022-11-04T01:46:57.792Z,93.52
2022-11-04T01:47:57.782Z,93.43
2022-11-04T01:48:57.765Z,93.63
2022-11-04T01:49:57.751Z,93.84
2022-11-04T01:50:57.759Z,93.84
2022-11-04T01:51:57.738Z,93.32
2022-11-04T01:52:57.718Z,93.32
2022-11-04T01:53:57.720Z,93.01
2022-11-04T01:54:57.698Z,93.01
2022-11-04T01:55:57.688Z,93.01
2022-11-04T01:56:57.673Z,93.12
2022-11-04T01:57:57.657Z,93.01
2022-11-04T01:58:57.655Z,93.12
2022-11-04T01:59:57.646Z,93.32
2022-11-04T02:00:57.636Z,93.43
2022-11-04T02:01:57.715Z,93.52
2022-11-04T02:02:57.587Z,93.63
2022-11-04T02:03:57.573Z,93.52
2022-11-04T02:04:57.571Z,93.43
2022-11-04T02:05:57.570Z,93.52
2022-11-04T02:06:57.544Z,93.12
2022-11-04T02:07:57.535Z,93.12
2022-11-04T02:08:57.580Z,93.12
2022-11-04T02:09:57.504Z,93.22
2022-11-04T02:10:57.488Z,93.01
2022-11-04T02:11:57.481Z,92.60
2022-11-04T02:12:57.468Z,92.05
2022-11-04T02:13:57.448Z,91.74
2022-11-04T02:14:57.436Z,91.64
2022-11-04T02:15:57.417Z,91.95
2022-11-04T02:16:57.406Z,92.10
2022-11-04T02:17:57.412Z,92.19
2022-11-04T02:18:57.384Z,92.10
2022-11-04T02:19:57.376Z,91.89
2022-11-04T02:20:57.353Z,91.99
2022-11-04T02:21:57.348Z,91.99
2022-11-04T02:22:57.331Z,92.30
2022-11-04T02:23:57.330Z,92.60
2022-11-04T02:24:57.317Z,92.40
2022-11-04T02:25:57.302Z,92.71
2022-11-04T02:26:57.284Z,92.50
2022-11-04T02:27:57.269Z,92.50
2022-11-04T02:28:57.253Z,92.60
2022-11-04T02:29:57.290Z,92.10
2022-11-04T02:30:57.230Z,91.38
2022-11-04T02:31:57.220Z,91.27
2022-11-04T02:32:57.213Z,91.17
2022-11-04T02:33:57.195Z,91.38
2022-11-04T02:34:57.193Z,91.48
2022-11-04T02:35:57.194Z,91.48
2022-11-04T02:36:57.158Z,91.48
2022-11-04T02:37:57.158Z,91.58
2022-11-04T02:38:57.130Z,91.69
2022-11-04T02:39:57.120Z,91.69
2022-11-04T02:40:57.115Z,91.78
2022-11-04T02:41:57.103Z,91.78
2022-11-04T02:42:57.079Z,92.14
2022-11-04T02:43:57.070Z,92.10
2022-11-04T02:44:57.066Z,92.03
2022-11-04T02:45:57.069Z,91.99
2022-11-04T02:46:57.030Z,91.99
2022-11-04T02:47:57.037Z,91.89
2022-11-04T02:48:57.003Z,92.24
2022-11-04T02:49:56.995Z,92.34
2022-11-04T02:50:56.983Z,92.55
2022-11-04T02:51:56.967Z,92.55
2022-11-04T02:52:56.958Z,92.65
2022-11-04T02:53:56.961Z,92.75
2022-11-04T02:54:56.929Z,92.85
2022-11-04T02:55:56.916Z,92.96
2022-11-04T02:56:56.926Z,93.06
2022-11-04T02:57:56.897Z,93.16
2022-11-04T02:58:56.893Z,93.06
2022-11-04T02:59:56.882Z,93.06
2022-11-04T03:00:56.909Z,93.20
2022-11-04T03:01:56.991Z,93.26
2022-11-04T03:02:56.829Z,93.30
2022-11-04T03:03:56.814Z,93.10
2022-11-04T03:04:56.823Z,92.96
2022-11-04T03:05:56.815Z,93.10
2022-11-04T03:06:56.857Z,93.20
2022-11-04T03:07:56.794Z,93.20
2022-11-04T03:08:56.753Z,93.30
2022-11-04T03:09:56.752Z,93.20
2022-11-04T03:10:56.740Z,93.41
2022-11-04T03:11:56.723Z,93.51
2022-11-04T03:12:56.704Z,93.62
2022-11-04T03:13:56.690Z,93.51
2022-11-04T03:14:56.681Z,93.41
2022-11-04T03:15:56.664Z,93.41
2022-11-04T03:16:56.678Z,93.51
2022-11-04T03:17:56.653Z,93.41
2022-11-04T03:18:56.627Z,93.10
2022-11-04T03:19:56.625Z,93.00
2022-11-04T03:20:56.604Z,93.10
2022-11-04T03:21:56.589Z,93.30
2022-11-04T03:22:56.584Z,92.90
2022-11-04T03:23:56.589Z,92.59
2022-11-04T03:24:56.555Z,92.59
2022-11-04T03:25:56.533Z,92.38
2022-11-04T03:26:56.525Z,92.28
2022-11-04T03:27:56.524Z,92.38
2022-11-04T03:28:56.509Z,92.59
2022-11-04T03:29:56.496Z,92.83
2022-11-04T03:30:56.484Z,92.94
2022-11-04T03:31:56.487Z,92.63
2022-11-04T03:32:56.451Z,92.49
2022-11-04T03:33:56.445Z,92.53
2022-11-04T03:34:56.426Z,92.43
2022-11-04T03:35:56.424Z,92.18
2022-11-04T03:36:56.398Z,92.43
2022-11-04T03:37:56.390Z,92.43
2022-11-04T03:38:56.393Z,92.32
2022-11-04T03:39:56.373Z,92.12
2022-11-04T03:40:56.360Z,92.22
2022-11-04T03:41:56.361Z,92.22
2022-11-04T03:42:56.339Z,92.12
2022-11-04T03:43:56.322Z,91.82
2022-11-04T03:44:56.314Z,91.71
2022-11-04T03:45:56.297Z,91.82
2022-11-04T03:46:56.275Z,91.91
2022-11-04T03:47:56.308Z,92.02
2022-11-04T03:48:56.254Z,92.02
2022-11-04T03:49:56.242Z,91.91
2022-11-04T03:50:56.232Z,91.82
2022-11-04T03:52:02.782Z,91.91
2022-11-04T03:54:01.229Z,91.82
2022-11-04T03:55:02.219Z,91.82
2022-11-04T03:57:58.897Z,91.50
2022-11-04T03:58:59.891Z,91.09
2022-11-04T03:59:59.864Z,90.79
2022-11-04T04:00:59.924Z,91.09
2022-11-04T04:01:59.941Z,91.20
2022-11-04T04:02:59.852Z,91.09
2022-11-04T04:03:59.832Z,90.99
2022-11-04T04:04:59.832Z,90.89
2022-11-04T04:05:59.783Z,90.79
2022-11-04T04:06:59.778Z,90.99
2022-11-04T04:07:59.781Z,90.79
2022-11-04T04:08:59.757Z,90.69
2022-11-04T04:09:59.734Z,90.58
2022-11-04T04:10:59.790Z,90.48
2022-11-04T04:11:59.710Z,90.58
2022-11-04T04:12:59.697Z,90.69
2022-11-04T04:13:59.715Z,90.58
2022-11-04T04:14:59.670Z,90.48
2022-11-04T04:15:59.664Z,90.58
2022-11-04T04:16:59.713Z,90.37
2022-11-04T04:17:59.635Z,90.28
2022-11-04T04:18:59.622Z,90.37
2022-11-04T04:19:59.606Z,90.48
2022-11-04T04:20:59.661Z,90.37
2022-11-04T04:21:59.605Z,90.28
2022-11-04T04:22:59.585Z,90.17
2022-11-04T04:23:59.577Z,90.28
2022-11-04T04:24:59.549Z,90.48
2022-11-04T04:25:59.539Z,90.58
2022-11-04T04:26:59.567Z,90.58
2022-11-04T04:27:59.506Z,90.58
2022-11-04T04:28:59.506Z,90.28
2022-11-04T04:29:59.512Z,90.37
2022-11-04T04:31:00.207Z,90.48
2022-11-04T04:31:59.455Z,90.28
2022-11-04T04:32:59.456Z,90.37
2022-11-04T04:33:59.425Z,90.37
2022-11-04T04:34:59.428Z,90.48
2022-11-04T04:35:59.404Z,90.37
2022-11-04T04:36:59.434Z,90.48
2022-11-04T04:37:59.378Z,90.58
2022-11-04T04:38:59.372Z,90.58
2022-11-04T04:39:59.353Z,90.58
2022-11-04T04:41:59.340Z,90.48
2022-11-04T04:42:59.341Z,90.52
2022-11-04T04:43:59.317Z,90.58
2022-11-04T04:44:59.312Z,90.48
2022-11-04T04:45:59.283Z,90.58
2022-11-04T04:46:59.286Z,90.58
2022-11-04T04:47:59.254Z,90.73
2022-11-04T04:48:59.239Z,90.73
2022-11-04T04:49:59.230Z,90.83
2022-11-04T04:50:59.276Z,90.52
2022-11-04T04:51:59.200Z,90.58
2022-11-04T04:52:59.201Z,90.48
2022-11-04T04:53:59.219Z,90.37
2022-11-04T04:54:59.171Z,90.52
2022-11-04T04:55:59.164Z,90.62
2022-11-04T04:56:59.136Z,90.52
2022-11-04T04:57:59.125Z,90.52
2022-11-04T04:58:59.150Z,90.48
2022-11-04T04:59:59.165Z,90.37
2022-11-04T05:00:59.132Z,90.28
2022-11-04T05:01:59.233Z,90.42
2022-11-04T05:02:59.066Z,90.62
2022-11-04T05:03:59.076Z,90.52
2022-11-04T05:04:59.054Z,90.52
2022-11-04T05:05:59.068Z,90.62
2022-11-04T05:06:59.023Z,90.62
2022-11-04T05:07:58.999Z,90.73
2022-11-04T05:08:58.984Z,90.73
2022-11-04T05:09:59.023Z,90.52
2022-11-04T05:10:58.986Z,90.42
2022-11-04T05:11:58.944Z,90.42
2022-11-04T05:12:58.977Z,90.42
2022-11-04T05:13:58.920Z,90.52
2022-11-04T05:14:58.908Z,90.52
2022-11-04T05:15:59.492Z,90.52
2022-11-04T05:16:58.901Z,90.52
2022-11-04T05:17:58.879Z,90.62
2022-11-04T05:18:58.896Z,90.62
2022-11-04T05:19:58.847Z,90.52
2022-11-04T05:20:58.834Z,90.73
2022-11-04T05:21:58.846Z,90.73
2022-11-04T05:22:58.809Z,90.83
2022-11-04T05:23:58.815Z,90.73
2022-11-04T05:24:58.791Z,90.83
2022-11-04T05:25:58.768Z,90.73
2022-11-04T05:26:58.762Z,90.62
2022-11-04T05:27:58.743Z,90.62
2022-11-04T05:28:58.784Z,90.83
2022-11-04T05:29:58.730Z,90.62
2022-11-04T05:30:58.704Z,90.42
2022-11-04T05:31:58.695Z,90.42
2022-11-04T05:33:01.760Z,90.42
2022-11-04T05:33:58.676Z,90.32
2022-11-04T05:34:58.694Z,90.67
2022-11-04T05:35:58.643Z,90.67
2022-11-04T05:36:58.642Z,90.56
2022-11-04T05:37:58.613Z,90.67
2022-11-04T05:38:58.628Z,90.67
2022-11-04T05:39:58.612Z,90.56
2022-11-04T05:40:58.595Z,90.36
2022-11-04T05:41:58.579Z,90.01
2022-11-04T05:42:58.573Z,90.01
2022-11-04T05:43:58.544Z,90.01
2022-11-04T05:44:58.608Z,90.11
2022-11-04T05:45:58.559Z,90.01
2022-11-04T05:46:58.537Z,89.90
2022-11-04T05:47:58.497Z,89.60
2022-11-04T05:48:58.488Z,89.70
2022-11-04T05:49:58.467Z,89.81
2022-11-04T05:50:58.499Z,89.70
2022-11-04T05:51:58.391Z,89.70
2022-11-04T05:52:58.451Z,89.39
2022-11-04T05:53:58.444Z,89.29
2022-11-04T05:54:58.391Z,89.50
2022-11-04T05:55:58.335Z,89.29
2022-11-04T05:56:58.321Z,89.09
2022-11-04T05:57:58.318Z,88.98
2022-11-04T05:58:58.317Z,88.98
2022-11-04T05:59:58.281Z,88.98
2022-11-04T06:00:58.279Z,88.78
2022-11-04T06:01:58.457Z,88.78
2022-11-04T06:02:58.347Z,88.88
2022-11-04T06:03:58.227Z,88.78
2022-11-04T06:04:58.258Z,88.57
2022-11-04T06:05:58.251Z,88.47
2022-11-04T06:06:58.222Z,88.57
2022-11-04T06:07:58.183Z,88.17
2022-11-04T06:08:58.175Z,88.23
2022-11-04T06:09:58.155Z,88.27
2022-11-04T06:10:58.166Z,88.23
2022-11-04T06:11:58.168Z,88.23
2022-11-04T06:12:58.194Z,88.12
2022-11-04T06:13:58.101Z,88.02
2022-11-04T06:14:58.090Z,87.71
2022-11-04T06:15:58.127Z,87.82
2022-11-04T06:16:58.130Z,87.92
2022-11-04T06:17:58.056Z,87.71
2022-11-04T06:19:01.595Z,87.71
2022-11-04T06:19:58.038Z,87.71
2022-11-04T06:20:58.036Z,87.51
2022-11-04T06:21:58.005Z,87.71
2022-11-04T06:22:57.994Z,87.92
2022-11-04T06:23:57.996Z,87.82
2022-11-04T06:24:57.969Z,88.02
2022-11-04T06:25:57.952Z,88.02
2022-11-04T06:26:57.943Z,87.92
2022-11-04T06:27:57.959Z,88.23
2022-11-04T06:28:57.964Z,88.33
2022-11-04T06:29:57.902Z,88.23
2022-11-04T06:30:57.890Z,88.02
2022-11-04T06:31:57.878Z,88.27
2022-11-04T06:32:57.867Z,88.23
2022-11-04T06:33:57.852Z,88.02
2022-11-04T06:34:57.850Z,88.23
2022-11-04T06:35:57.828Z,88.02
2022-11-04T06:36:57.810Z,88.23
2022-11-04T06:37:57.801Z,88.12
2022-11-04T06:39:04.095Z,87.82
2022-11-04T06:39:57.781Z,87.41
2022-11-04T06:40:57.810Z,87.71
2022-11-04T06:41:59.716Z,87.92
2022-11-04T06:42:57.753Z,88.02
2022-11-04T06:43:57.730Z,88.02
2022-11-04T06:44:57.746Z,87.71
2022-11-04T06:45:57.695Z,87.82
2022-11-04T06:46:57.700Z,87.51
2022-11-04T06:47:57.685Z,87.82
2022-11-04T06:48:57.662Z,87.82
2022-11-04T06:49:57.663Z,87.82
2022-11-04T06:50:57.632Z,87.92
2022-11-04T06:51:57.623Z,88.02
2022-11-04T06:52:57.627Z,87.71
2022-11-04T06:53:57.601Z,87.82
2022-11-04T06:54:57.581Z,87.71
2022-11-04T06:55:57.571Z,87.71
2022-11-04T06:56:57.557Z,87.51
2022-11-04T06:57:57.549Z,87.71
2022-11-04T06:58:57.542Z,87.71
2022-11-04T06:59:57.517Z,87.41
2022-11-04T07:00:57.566Z,87.51
2022-11-04T07:01:57.578Z,87.51
2022-11-04T07:02:57.546Z,87.30
2022-11-04T07:03:57.463Z,87.51
2022-11-04T07:05:57.452Z,87.30
2022-11-04T07:06:57.434Z,87.51
2022-11-04T07:07:57.417Z,87.30
2022-11-04T07:08:57.405Z,87.20
2022-11-04T07:09:57.390Z,87.30
2022-11-04T07:10:57.390Z,86.99
2022-11-04T07:11:57.368Z,86.96
2022-11-04T07:12:57.352Z,87.41
2022-11-04T07:13:57.359Z,87.30
2022-11-04T07:14:57.327Z,87.51
2022-11-04T07:15:57.313Z,87.51
2022-11-04T07:16:57.321Z,87.10
2022-11-04T07:17:57.299Z,86.96
2022-11-04T07:18:57.303Z,86.96
2022-11-04T07:19:57.298Z,86.75
2022-11-04T07:20:57.271Z,86.75
2022-11-04T07:21:57.245Z,86.34
2022-11-04T07:22:57.273Z,86.55
2022-11-04T07:23:57.206Z,86.96
2022-11-04T07:24:57.202Z,86.55
2022-11-04T07:25:57.181Z,86.34
2022-11-04T07:26:57.341Z,86.44
2022-11-04T07:28:01.079Z,86.24
2022-11-04T07:28:57.173Z,86.44
2022-11-04T07:29:57.135Z,86.44
2022-11-04T07:30:57.124Z,85.93
2022-11-04T07:31:57.115Z,86.14
2022-11-04T07:32:57.100Z,86.14
2022-11-04T07:33:57.081Z,85.89
2022-11-04T07:34:57.096Z,86.24
2022-11-04T07:35:58.378Z,86.40
2022-11-04T07:36:57.051Z,85.99
2022-11-04T07:37:57.035Z,85.69
2022-11-04T07:38:57.026Z,85.89
2022-11-04T07:39:57.010Z,85.58
2022-11-04T07:40:57.007Z,85.48
2022-11-04T07:41:59.613Z,85.58
2022-11-04T07:42:56.971Z,85.58
2022-11-04T07:43:56.959Z,85.69
2022-11-04T07:44:56.946Z,85.38
2022-11-04T07:45:56.929Z,85.38
2022-11-04T07:46:56.924Z,85.17
2022-11-04T07:47:56.903Z,84.77
2022-11-04T07:48:56.918Z,84.87
2022-11-04T07:49:57.056Z,84.97
2022-11-04T07:50:56.870Z,85.03
2022-11-04T07:51:56.853Z,84.72
2022-11-04T07:52:56.850Z,84.83
2022-11-04T07:53:56.833Z,84.52
2022-11-04T07:54:56.815Z,84.72
2022-11-04T07:55:56.811Z,84.31
2022-11-04T07:56:56.785Z,84.52
2022-11-04T07:57:56.779Z,84.63
2022-11-04T07:58:56.785Z,84.11
2022-11-04T07:59:56.759Z,84.22
2022-11-04T08:00:56.743Z,84.42
2022-11-04T08:01:56.941Z,84.72
2022-11-04T08:02:56.779Z,84.52
2022-11-04T08:03:56.708Z,84.01
2022-11-04T08:04:56.709Z,84.07
2022-11-04T08:05:56.678Z,83.81
2022-11-04T08:06:56.679Z,83.81
2022-11-04T08:07:56.652Z,83.39
2022-11-04T08:08:56.688Z,83.56
2022-11-04T08:09:56.629Z,83.46
2022-11-04T08:10:56.715Z,83.36
2022-11-04T08:11:56.600Z,83.87
2022-11-04T08:12:56.592Z,83.52
2022-11-04T08:13:56.581Z,83.11
2022-11-04T08:14:56.564Z,82.34
2022-11-04T08:15:56.553Z,83.05
2022-11-04T08:16:56.564Z,83.15
2022-11-04T08:17:56.527Z,83.22
2022-11-04T08:18:56.509Z,82.84
2022-11-04T08:19:56.499Z,83.36
2022-11-04T08:20:56.488Z,83.36
2022-11-04T08:21:56.478Z,83.46
2022-11-04T08:22:56.479Z,83.05
2022-11-04T08:23:56.471Z,83.15
2022-11-04T08:24:56.428Z,83.05
2022-11-04T08:25:56.459Z,82.95
2022-11-04T08:26:56.408Z,83.22
2022-11-04T08:28:00.650Z,82.20
2022-11-04T08:28:56.427Z,82.29
2022-11-04T08:29:56.372Z,82.40
2022-11-04T08:30:56.402Z,82.50
2022-11-04T08:31:56.341Z,82.81
2022-11-04T08:32:56.329Z,82.95
2022-11-04T08:33:56.319Z,82.70
2022-11-04T08:34:56.328Z,83.05
2022-11-04T08:35:56.291Z,82.75
2022-11-04T08:36:56.278Z,83.25
2022-11-04T08:37:56.259Z,83.36
2022-11-04T08:38:56.263Z,83.46
2022-11-04T08:39:56.257Z,83.66
2022-11-04T08:40:59.775Z,84.17
2022-11-04T08:41:57.226Z,84.99
2022-11-04T08:42:56.211Z,84.58
2022-11-04T08:43:56.202Z,85.16
2022-11-04T08:44:56.198Z,85.57
2022-11-04T08:45:56.160Z,84.65
2022-11-04T08:46:56.171Z,84.28
2022-11-04T08:47:59.046Z,84.58
2022-11-04T08:48:56.138Z,85.61
2022-11-04T08:49:56.125Z,85.16
2022-11-04T08:50:56.129Z,84.48
2022-11-04T08:51:56.088Z,84.48
2022-11-04T08:52:56.117Z,84.69
2022-11-04T08:53:56.065Z,85.20
2022-11-04T08:54:57.425Z,84.89
2022-11-04T08:55:56.030Z,84.14
2022-11-04T08:56:56.039Z,84.03
2022-11-04T08:57:56.014Z,84.34
2022-11-04T08:58:56.017Z,84.34
2022-11-04T08:59:55.991Z,84.24
2022-11-04T09:00:55.968Z,83.32
2022-11-04T09:01:56.072Z,83.73
2022-11-04T09:02:55.951Z,83.48
2022-11-04T09:03:55.961Z,83.18
2022-11-04T09:04:55.949Z,83.48
2022-11-04T09:05:55.907Z,83.01
2022-11-04T09:06:55.903Z,83.42
2022-11-04T09:07:55.885Z,84.24
2022-11-04T09:08:55.869Z,84.34
2022-11-04T09:09:55.864Z,84.95
2022-11-04T09:10:55.870Z,84.24
2022-11-04T09:11:55.832Z,84.65
2022-11-04T09:12:55.907Z,84.58
2022-11-04T09:13:56.033Z,85.10
2022-11-04T09:14:55.859Z,85.10
2022-11-04T09:15:55.809Z,85.40
2022-11-04T09:16:55.787Z,86.12
2022-11-04T09:17:55.766Z,86.02
2022-11-04T09:18:55.739Z,85.81
2022-11-04T09:19:55.744Z,85.91
2022-11-04T09:20:55.716Z,86.12
2022-11-04T09:21:55.814Z,85.81
2022-11-04T09:22:55.732Z,84.79
2022-11-04T09:23:55.679Z,85.81
2022-11-04T09:24:55.663Z,86.73
2022-11-04T09:25:55.725Z,86.12
2022-11-04T09:26:55.640Z,86.02
2022-11-04T09:27:55.625Z,86.22
2022-11-04T09:28:55.667Z,86.32
2022-11-04T09:29:55.601Z,86.53
2022-11-04T09:30:55.585Z,86.49
2022-11-04T09:31:55.579Z,86.38
2022-11-04T09:32:55.562Z,86.04
2022-11-04T09:33:55.572Z,86.14
2022-11-04T09:34:55.568Z,86.14
2022-11-04T09:35:55.525Z,85.94
2022-11-04T09:36:55.515Z,85.94
2022-11-04T09:37:55.510Z,85.53
2022-11-04T09:38:55.485Z,85.77
2022-11-04T09:39:55.471Z,85.88
2022-11-04T09:40:55.497Z,85.42
2022-11-04T09:41:55.441Z,85.63
2022-11-04T09:42:55.431Z,85.83
2022-11-04T09:43:55.429Z,85.42
2022-11-04T09:45:55.406Z,86.14
2022-11-04T09:46:55.443Z,85.83
2022-11-04T09:47:55.368Z,85.26
2022-11-04T09:48:55.358Z,85.88
2022-11-04T09:49:55.348Z,85.67
2022-11-04T09:50:55.331Z,85.97
2022-11-04T09:51:56.091Z,86.59
2022-11-04T09:52:55.321Z,86.90
2022-11-04T09:53:55.294Z,86.14
2022-11-04T09:54:55.273Z,86.69
2022-11-04T09:55:55.257Z,87.26
2022-11-04T09:56:55.302Z,87.37
2022-11-04T09:57:55.323Z,86.55
2022-11-04T09:58:55.249Z,86.61
2022-11-04T09:59:55.230Z,86.35
2022-11-04T10:00:55.269Z,86.14
2022-11-04T10:01:55.281Z,87.02
2022-11-04T10:02:55.178Z,85.14
2022-11-04T10:03:55.162Z,84.80
2022-11-04T10:04:55.169Z,84.66
2022-11-04T10:05:55.138Z,83.70
2022-11-04T10:06:55.125Z,82.23
2022-11-04T10:07:55.112Z,81.62
2022-11-04T10:08:55.097Z,82.10
2022-11-04T10:09:55.087Z,83.49
2022-11-04T10:10:55.093Z,82.64
2022-11-04T10:11:55.071Z,81.48
2022-11-04T10:12:55.053Z,79.89
2022-11-04T10:13:55.030Z,79.14
2022-11-04T10:14:55.018Z,79.34
2022-11-04T10:15:55.020Z,78.42
2022-11-04T10:16:55.017Z,79.11
2022-11-04T10:17:54.986Z,80.57
2022-11-04T10:18:54.975Z,80.94
2022-11-04T10:19:54.951Z,81.90
2022-11-04T10:20:54.942Z,82.10
2022-11-04T10:21:54.938Z,81.43
2022-11-04T10:22:54.950Z,81.87
2022-11-04T10:23:54.903Z,81.57
2022-11-04T10:24:54.889Z,82.18
2022-11-04T10:25:54.892Z,82.79
2022-11-04T10:27:00.153Z,82.55
2022-11-04T10:27:54.863Z,82.75
2022-11-04T10:28:54.868Z,81.80
2022-11-04T10:29:54.829Z,81.80
2022-11-04T10:30:54.821Z,81.45
2022-11-04T10:31:54.805Z,80.91
2022-11-04T10:32:54.788Z,79.79
2022-11-04T10:33:54.788Z,78.66
2022-11-04T10:34:54.804Z,78.32
2022-11-04T10:35:54.746Z,78.77
2022-11-04T10:36:54.736Z,77.34
2022-11-04T10:37:54.813Z,78.66
2022-11-04T10:38:54.718Z,78.05
2022-11-04T10:39:54.725Z,78.91
2022-11-04T10:40:54.730Z,78.39
2022-11-04T10:41:54.673Z,78.80
2022-11-04T10:42:54.661Z,78.91
2022-11-04T10:43:54.652Z,80.02
2022-11-04T10:44:54.637Z,78.46
2022-11-04T10:45:54.635Z,78.60
2022-11-04T10:46:54.673Z,78.26
2022-11-04T10:47:54.593Z,77.51
2022-11-04T10:48:54.587Z,77.10
2022-11-04T10:50:26.408Z,75.67
2022-11-04T10:50:54.568Z,76.28
2022-11-04T10:51:54.576Z,75.88
2022-11-04T10:52:54.556Z,75.92
2022-11-04T10:53:54.525Z,77.27
2022-11-04T10:54:54.591Z,77.68
2022-11-04T10:55:54.491Z,77.37
2022-11-04T10:56:54.518Z,77.62
2022-11-04T10:57:54.469Z,77.41
2022-11-04T10:58:54.479Z,77.48
2022-11-04T10:59:54.443Z,77.24
2022-11-04T11:00:54.678Z,76.83
2022-11-04T11:01:54.600Z,76.83
2022-11-04T11:02:54.404Z,77.07
2022-11-04T11:03:54.399Z,77.27
2022-11-04T11:04:54.441Z,76.53
2022-11-04T11:05:54.370Z,75.47
2022-11-04T11:06:54.357Z,74.69
2022-11-04T11:07:54.336Z,74.93
2022-11-04T11:08:54.332Z,75.30
2022-11-04T11:09:54.811Z,75.81
2022-11-04T11:10:54.324Z,75.54
2022-11-04T11:11:54.295Z,75.07
2022-11-04T11:12:54.296Z,75.98
2022-11-04T11:13:54.274Z,76.29
2022-11-04T11:14:54.262Z,76.15
2022-11-04T11:15:54.240Z,75.95
2022-11-04T11:16:54.334Z,76.76
2022-11-04T11:17:54.234Z,77.37
2022-11-04T11:18:54.201Z,76.97
2022-11-04T11:19:54.203Z,77.07
2022-11-04T11:20:54.202Z,76.83
2022-11-04T11:21:54.159Z,75.98
2022-11-04T11:22:54.196Z,76.18
2022-11-04T11:23:54.140Z,75.67
2022-11-04T11:24:54.122Z,76.22
2022-11-04T11:25:54.115Z,76.15
2022-11-04T11:26:54.102Z,76.66
2022-11-04T11:27:54.116Z,76.76
2022-11-04T11:28:58.563Z,76.90
2022-11-04T11:29:54.063Z,77.21
2022-11-04T11:30:54.046Z,77.62
2022-11-04T11:31:54.039Z,78.12
2022-11-04T11:32:54.020Z,77.62
2022-11-04T11:33:54.003Z,78.12
2022-11-04T11:34:54.022Z,78.12
2022-11-04T11:35:53.981Z,78.23
2022-11-04T11:36:53.966Z,78.19
2022-11-04T11:37:53.967Z,77.89
2022-11-04T11:38:53.938Z,77.92
2022-11-04T11:39:53.931Z,78.02
2022-11-04T11:41:18.763Z,78.43
2022-11-04T11:41:53.920Z,78.12
2022-11-04T11:42:53.886Z,78.02
2022-11-04T11:43:53.906Z,78.02
2022-11-04T11:44:53.867Z,78.30
2022-11-04T11:45:53.863Z,77.48
2022-11-04T11:46:53.848Z,77.48
2022-11-04T11:47:53.833Z,77.48
2022-11-04T11:48:53.845Z,77.27
2022-11-04T11:49:53.820Z,77.98
2022-11-04T11:50:53.874Z,78.37
2022-11-04T11:51:54.050Z,79.28
2022-11-04T11:52:53.790Z,79.25
2022-11-04T11:53:53.764Z,79.45
2022-11-04T11:54:53.874Z,78.80
2022-11-04T11:55:53.744Z,78.39
2022-11-04T12:01:02.079Z,78.57
2022-11-04T12:01:53.800Z,79.55
2022-11-04T12:02:53.816Z,79.25
2022-11-04T12:09:53.564Z,78.47
2022-11-04T12:10:53.651Z,79.08
2022-11-04T12:11:53.535Z,79.25
2022-11-04T12:12:53.529Z,78.84
2022-11-04T12:13:53.497Z,78.09
2022-11-04T12:14:53.513Z,78.30
2022-11-04T12:15:53.463Z,78.30
2022-11-04T12:16:53.484Z,78.39
2022-11-04T12:17:53.436Z,78.30
2022-11-04T12:18:53.428Z,78.09
2022-11-04T12:19:53.424Z,78.19
2022-11-04T12:20:53.413Z,78.33
2022-11-04T12:21:53.418Z,78.74
2022-11-04T12:22:53.402Z,78.64
2022-11-04T12:23:53.371Z,78.94
2022-11-04T12:24:53.358Z,78.74
2022-11-04T12:25:53.363Z,78.33
2022-11-04T12:26:53.342Z,77.72
2022-11-04T12:27:53.318Z,78.53
2022-11-04T12:28:53.326Z,78.64
2022-11-04T12:29:53.289Z,78.39
2022-11-04T12:30:53.358Z,78.19
2022-11-04T12:31:53.313Z,78.19
2022-11-04T12:32:53.288Z,77.55
2022-11-04T12:33:53.253Z,77.34
2022-11-04T12:34:53.306Z,76.93
2022-11-04T12:35:53.211Z,77.03
2022-11-04T12:36:53.207Z,76.97
2022-11-04T12:37:53.228Z,77.58
2022-11-04T12:38:53.176Z,77.68
2022-11-04T12:39:53.168Z,77.37
2022-11-04T12:41:18.701Z,77.14
2022-11-04T12:42:19.380Z,77.27
2022-11-04T12:42:53.137Z,77.24
2022-11-04T12:43:53.112Z,76.93
2022-11-04T12:44:53.096Z,76.79
2022-11-04T12:45:53.087Z,75.47
2022-11-04T12:46:53.093Z,74.76
2022-11-04T12:47:53.069Z,75.37
2022-11-04T12:48:57.001Z,74.82
2022-11-04T12:49:53.040Z,74.32
2022-11-04T12:50:53.055Z,74.72
2022-11-04T12:51:53.005Z,74.21
2022-11-04T12:52:53.012Z,74.32
2022-11-04T12:53:52.985Z,74.52
2022-11-04T12:54:52.975Z,74.21
2022-11-04T12:55:53.002Z,74.41
2022-11-04T12:56:52.946Z,74.79
2022-11-04T12:57:52.929Z,73.77
2022-11-04T12:58:52.965Z,73.57
2022-11-04T12:59:52.908Z,73.77
2022-11-04T13:00:55.452Z,73.87
2022-11-04T13:01:53.023Z,74.72
2022-11-04T13:02:52.883Z,75.02
2022-11-04T13:03:52.860Z,75.33
2022-11-04T13:04:52.870Z,75.13
2022-11-04T13:05:52.832Z,75.13
2022-11-04T13:06:52.825Z,75.02
2022-11-04T13:07:52.813Z,75.13
2022-11-04T13:08:52.783Z,75.64